Time;durP1;ratioP1;P1;durP2;ratioP2;P2;SDS_P1;SDS_P2;PMS_P1;PMS_P2;Temp;Humidity;BMP_temperature;BMP_pressure;BME280_temperature;BME280_humidity;BME280_pressure;Samples;Min_cycle;Max_cycle;Signal;HPM_P1;HPM_P2
2022/02/12 00:02:05;;;;;;;0.50;0.50;;;1.00;99.90;;;;;;5056318;28;20244;-80
2022/02/12 00:04:32;;;;;;;0.50;0.50;;;1.00;99.90;;;;;;5056174;28;20265;-80
2022/02/12 00:07:00;;;;;;;0.50;0.50;;;1.10;99.90;;;;;;5055445;28;20213;-78
2022/02/12 00:09:26;;;;;;;0.50;0.40;;;1.10;99.90;;;;;;5055357;28;20568;-80
2022/02/12 00:11:54;;;;;;;0.50;0.40;;;1.00;99.90;;;;;;5056261;28;20251;-80
2022/02/12 00:14:20;;;;;;;0.50;0.50;;;1.10;99.90;;;;;;5055850;28;20218;-80
2022/02/12 00:16:47;;;;;;;0.50;0.40;;;1.10;99.90;;;;;;5055954;28;20195;-80
2022/02/12 00:19:14;;;;;;;0.50;0.40;;;1.00;99.90;;;;;;5055175;28;20202;-78
2022/02/12 00:21:42;;;;;;;0.50;0.50;;;1.00;99.90;;;;;;5056150;28;20602;-80
2022/02/12 00:24:10;;;;;;;0.50;0.40;;;1.00;99.90;;;;;;5056024;28;20702;-79
2022/02/12 00:26:37;;;;;;;0.50;0.50;;;1.10;99.90;;;;;;5056294;28;20221;-79
2022/02/12 00:29:03;;;;;;;0.50;0.40;;;1.20;99.90;;;;;;5055254;28;20195;-79
2022/02/12 00:31:30;;;;;;;0.50;0.40;;;1.20;99.90;;;;;;5056438;28;20217;-78
2022/02/12 00:33:57;;;;;;;0.50;0.40;;;1.10;99.90;;;;;;5057114;28;20284;-79
2022/02/12 00:36:24;;;;;;;0.50;0.40;;;1.10;99.90;;;;;;5057295;28;20193;-80
2022/02/12 00:38:51;;;;;;;0.50;0.47;;;1.00;99.90;;;;;;5057631;28;20205;-79
2022/02/12 00:41:20;;;;;;;0.50;0.50;;;0.90;99.90;;;;;;5057666;28;20194;-81
2022/02/12 00:43:46;;;;;;;0.50;0.47;;;0.90;99.90;;;;;;5058065;28;20217;-80
2022/02/12 00:46:13;;;;;;;0.50;0.50;;;1.00;99.90;;;;;;5056749;28;20315;-80
2022/02/12 00:48:40;;;;;;;0.50;0.40;;;1.10;99.90;;;;;;5057400;28;20197;-78
2022/02/12 00:51:06;;;;;;;0.50;0.40;;;1.00;99.90;;;;;;5056929;28;20256;-80
2022/02/12 00:53:33;;;;;;;0.50;0.40;;;0.90;99.90;;;;;;5057385;28;20200;-80
2022/02/12 00:56:00;;;;;;;0.60;0.60;;;0.80;99.90;;;;;;5057032;28;20222;-80
2022/02/12 00:58:28;;;;;;;0.50;0.40;;;0.90;99.90;;;;;;5057987;28;20200;-79
2022/02/12 01:00:54;;;;;;;0.50;0.40;;;0.90;99.90;;;;;;5058133;28;20594;-79
2022/02/12 01:03:21;;;;;;;0.50;0.40;;;0.90;99.90;;;;;;5058091;28;20752;-80
2022/02/12 01:05:48;;;;;;;0.50;0.40;;;1.00;99.90;;;;;;5062804;28;20243;-80
2022/02/12 01:08:14;;;;;;;0.50;0.50;;;1.10;99.90;;;;;;5061012;28;20214;-80
2022/02/12 01:10:41;;;;;;;0.50;0.50;;;1.00;99.90;;;;;;5059276;28;20202;-79
2022/02/12 01:13:08;;;;;;;0.60;0.60;;;1.10;99.90;;;;;;5061810;28;20205;-80
2022/02/12 01:15:36;;;;;;;0.50;0.40;;;1.00;99.90;;;;;;5060192;28;20730;-79
2022/02/12 01:18:04;;;;;;;3.92;2.00;;;1.00;99.90;;;;;;5060398;28;20222;-80
2022/02/12 01:20:31;;;;;;;0.50;0.40;;;0.90;99.90;;;;;;5058776;28;20585;-80
2022/02/12 01:22:58;;;;;;;0.50;0.40;;;0.90;99.90;;;;;;5057662;28;20202;-80
2022/02/12 01:25:25;;;;;;;1.02;1.02;;;1.00;99.90;;;;;;5057520;28;20211;-78
2022/02/12 01:27:53;;;;;;;0.57;0.57;;;1.00;99.90;;;;;;5057771;28;20571;-79
2022/02/12 01:30:20;;;;;;;0.50;0.50;;;1.10;99.90;;;;;;5057537;28;20203;-80
2022/02/12 01:32:48;;;;;;;0.50;0.50;;;1.10;99.90;;;;;;5056828;28;20194;-80
2022/02/12 01:35:15;;;;;;;0.50;0.50;;;1.10;99.90;;;;;;5057099;28;20267;-79
2022/02/12 01:37:42;;;;;;;0.50;0.40;;;1.20;99.90;;;;;;5057201;28;20192;-80
2022/02/12 01:40:10;;;;;;;0.50;0.50;;;1.20;99.90;;;;;;5057251;28;20220;-77
2022/02/12 01:42:37;;;;;;;0.50;0.40;;;1.10;99.90;;;;;;5057747;28;20198;-80
2022/02/12 01:45:05;;;;;;;0.50;0.40;;;1.00;99.90;;;;;;5056962;28;20217;-80
2022/02/12 01:47:31;;;;;;;0.50;0.40;;;1.00;99.90;;;;;;5057373;28;20213;-79
2022/02/12 01:49:59;;;;;;;0.50;0.50;;;1.00;99.90;;;;;;5056087;28;20683;-80
2022/02/12 01:52:29;;;;;;;0.50;0.50;;;1.00;99.90;;;;;;5057103;28;20202;-81
2022/02/12 01:54:56;;;;;;;0.50;0.40;;;0.90;99.90;;;;;;5056683;28;20713;-80
2022/02/12 01:57:22;;;;;;;0.50;0.40;;;0.80;99.90;;;;;;5056493;28;20618;-79
2022/02/12 01:59:49;;;;;;;0.50;0.50;;;0.80;99.90;;;;;;5056559;28;20275;-80
2022/02/12 02:02:16;;;;;;;0.50;0.40;;;0.80;99.90;;;;;;5056179;28;20263;-80
2022/02/12 02:04:43;;;;;;;0.75;0.75;;;0.70;99.90;;;;;;5056558;28;20230;-78
2022/02/12 02:07:12;;;;;;;0.50;0.50;;;0.70;99.90;;;;;;5053435;28;20221;-79
2022/02/12 02:09:39;;;;;;;0.60;0.60;;;0.60;99.90;;;;;;5053324;28;20197;-79
2022/02/12 02:12:06;;;;;;;0.80;0.80;;;0.60;99.90;;;;;;5053870;28;20264;-77
2022/02/12 02:14:35;;;;;;;0.50;0.40;;;0.60;99.90;;;;;;5053794;28;20215;-78
2022/02/12 02:17:02;;;;;;;0.50;0.47;;;0.60;99.90;;;;;;5052303;28;20197;-81
2022/02/12 02:19:30;;;;;;;0.95;0.95;;;0.60;99.90;;;;;;5052229;28;20207;-78
2022/02/12 02:21:59;;;;;;;0.50;0.40;;;0.50;99.90;;;;;;5053108;28;20552;-78
2022/02/12 02:24:28;;;;;;;0.50;0.40;;;0.50;99.90;;;;;;5052638;28;20775;-78
2022/02/12 02:27:05;;;;;;;0.50;0.40;;;0.60;99.90;;;;;;5052307;28;20671;-78
2022/02/12 02:29:32;;;;;;;1.23;1.13;;;0.50;99.90;;;;;;5052282;28;20272;-77
2022/02/12 02:31:58;;;;;;;0.50;0.40;;;0.50;99.90;;;;;;5052719;28;20202;-79
2022/02/12 02:34:26;;;;;;;1.88;1.77;;;0.40;99.90;;;;;;5052325;28;20634;-79
2022/02/12 02:36:53;;;;;;;0.50;0.40;;;0.40;99.90;;;;;;5052185;28;20296;-78
2022/02/12 02:39:19;;;;;;;0.50;0.50;;;0.50;99.90;;;;;;5051365;28;20197;-78
2022/02/12 02:41:48;;;;;;;0.50;0.50;;;0.40;99.90;;;;;;5051853;28;20671;-79
2022/02/12 02:44:15;;;;;;;0.50;0.50;;;0.40;99.90;;;;;;5051946;28;20577;-78
2022/02/12 02:46:42;;;;;;;0.50;0.50;;;0.40;99.90;;;;;;5052604;28;20205;-79
2022/02/12 02:49:09;;;;;;;1.42;1.33;;;0.30;99.90;;;;;;5051778;28;20674;-76
2022/02/12 02:57:05;;;;;;;21.73;1.40;;;0.30;99.90;;;;;;5052585;28;20196;-76
2022/02/12 02:59:32;;;;;;;0.70;0.70;;;0.40;99.90;;;;;;5052499;28;20556;-78
2022/02/12 03:01:59;;;;;;;1.30;1.20;;;0.40;99.90;;;;;;5052842;28;20202;-78
2022/02/12 03:04:25;;;;;;;0.70;0.70;;;0.40;99.90;;;;;;5052437;28;20236;-78
2022/02/12 03:06:52;;;;;;;1.38;1.27;;;0.40;99.90;;;;;;5053777;28;20227;-78
2022/02/12 03:09:19;;;;;;;0.50;0.40;;;0.40;99.90;;;;;;5051671;28;20223;-79
2022/02/12 03:11:46;;;;;;;0.50;0.40;;;0.30;99.90;;;;;;5051984;28;20202;-79
2022/02/12 03:14:14;;;;;;;0.60;0.60;;;0.30;99.90;;;;;;5053243;28;20219;-78
2022/02/12 03:16:41;;;;;;;0.50;0.40;;;0.30;99.90;;;;;;5052897;28;20238;-79
2022/02/12 03:19:08;;;;;;;0.82;0.82;;;0.30;99.90;;;;;;5052788;28;20198;-76
2022/02/12 03:21:34;;;;;;;0.50;0.40;;;0.30;99.90;;;;;;5053206;28;20202;-78
2022/02/12 03:24:01;;;;;;;0.60;0.60;;;0.30;99.90;;;;;;5053193;28;20609;-79
2022/02/12 03:26:28;;;;;;;0.50;0.40;;;0.20;99.90;;;;;;5052898;28;20408;-78
2022/02/12 03:28:55;;;;;;;0.50;0.40;;;0.20;99.90;;;;;;5054009;28;20252;-79
2022/02/12 03:31:23;;;;;;;0.50;0.40;;;0.20;99.90;;;;;;5053005;28;20185;-79
2022/02/12 03:33:49;;;;;;;1.05;1.05;;;0.20;99.90;;;;;;5053281;28;20205;-78
2022/02/12 03:36:16;;;;;;;0.50;0.40;;;0.10;99.90;;;;;;5052653;28;20222;-79
2022/02/12 03:38:47;;;;;;;0.55;0.52;;;0.10;99.90;;;;;;5053325;28;20255;-78
2022/02/12 03:41:14;;;;;;;0.50;0.40;;;0.00;99.90;;;;;;5053255;28;20185;-79
2022/02/12 03:43:41;;;;;;;0.57;0.57;;;0.10;99.90;;;;;;5053385;28;20260;-79
2022/02/12 03:46:09;;;;;;;1.13;1.13;;;0.10;99.90;;;;;;5056930;28;20216;-78
2022/02/12 03:48:37;;;;;;;4.35;1.10;;;0.10;99.90;;;;;;5056025;28;20217;-78
2022/02/12 03:51:04;;;;;;;2.17;0.80;;;0.20;99.90;;;;;;5055524;28;20205;-78
2022/02/12 03:53:30;;;;;;;0.50;0.40;;;0.20;99.90;;;;;;5055895;28;20201;-79
2022/02/12 03:55:57;;;;;;;0.50;0.40;;;0.10;99.90;;;;;;5055564;28;20217;-78
2022/02/12 03:58:24;;;;;;;0.50;0.50;;;0.10;99.90;;;;;;5056950;28;20186;-79
2022/02/12 04:00:51;;;;;;;0.50;0.43;;;0.10;99.90;;;;;;5057459;28;20196;-79
2022/02/12 04:03:18;;;;;;;0.50;0.40;;;0.20;99.90;;;;;;5057252;28;20205;-80
2022/02/12 04:05:47;;;;;;;0.70;0.70;;;0.20;99.90;;;;;;5058242;28;20226;-80
2022/02/12 04:08:18;;;;;;;0.50;0.40;;;0.20;99.90;;;;;;5057506;28;20228;-79
2022/02/12 04:10:45;;;;;;;0.57;0.50;;;0.20;99.90;;;;;;5057745;28;20185;-80
2022/02/12 04:13:12;;;;;;;4.00;1.15;;;0.30;99.90;;;;;;5057392;28;20287;-79
2022/02/12 04:15:38;;;;;;;0.50;0.50;;;0.30;99.90;;;;;;5057287;28;20251;-80
2022/02/12 04:18:08;;;;;;;0.77;0.77;;;0.30;99.90;;;;;;5058058;28;20200;-77
2022/02/12 04:20:35;;;;;;;3.00;2.72;;;0.20;99.90;;;;;;5060656;28;20193;-81
2022/02/12 04:23:03;;;;;;;7.25;0.95;;;0.30;99.90;;;;;;5070724;28;20198;-79
2022/02/12 04:25:30;;;;;;;0.50;0.40;;;0.20;99.90;;;;;;5073038;28;20219;-79
2022/02/12 04:27:56;;;;;;;0.50;0.50;;;0.20;99.90;;;;;;5071628;28;20214;-80
2022/02/12 04:30:23;;;;;;;0.60;0.60;;;0.30;99.90;;;;;;5071190;28;20192;-79
2022/02/12 04:32:50;;;;;;;0.50;0.50;;;0.30;99.90;;;;;;5071082;28;20199;-80
2022/02/12 04:35:17;;;;;;;0.50;0.40;;;0.30;99.90;;;;;;5064463;28;20217;-78
2022/02/12 04:37:44;;;;;;;0.50;0.50;;;0.30;99.90;;;;;;5054936;28;20614;-79
2022/02/12 04:40:13;;;;;;;0.50;0.40;;;0.30;99.90;;;;;;5056967;28;20216;-77
2022/02/12 04:42:40;;;;;;;0.50;0.40;;;0.20;99.90;;;;;;5055353;28;20206;-78
2022/02/12 04:45:07;;;;;;;0.50;0.40;;;0.30;99.90;;;;;;5055136;28;20220;-78
2022/02/12 04:47:36;;;;;;;0.50;0.40;;;0.30;99.90;;;;;;5053791;28;20594;-78
2022/02/12 04:50:04;;;;;;;0.50;0.50;;;0.20;99.90;;;;;;5053611;28;20199;-77
2022/02/12 04:52:30;;;;;;;0.50;0.40;;;0.20;99.90;;;;;;5053764;28;20199;-78
2022/02/12 04:54:57;;;;;;;0.50;0.50;;;0.30;99.90;;;;;;5053899;28;20238;-79
2022/02/12 04:57:25;;;;;;;0.50;0.40;;;0.20;99.90;;;;;;5053658;28;20205;-78
2022/02/12 04:59:52;;;;;;;0.50;0.40;;;0.20;99.90;;;;;;5053416;28;20197;-77
2022/02/12 05:02:18;;;;;;;0.50;0.40;;;0.20;99.90;;;;;;5053226;28;20203;-77
2022/02/12 05:04:45;;;;;;;0.82;0.82;;;0.20;99.90;;;;;;5053482;28;20228;-79
2022/02/12 05:07:12;;;;;;;1.25;1.25;;;0.30;99.90;;;;;;5054103;28;20191;-78
2022/02/12 05:09:38;;;;;;;1.42;1.33;;;0.20;99.90;;;;;;5053999;28;20219;-78
2022/02/12 05:12:06;;;;;;;0.50;0.40;;;0.20;99.90;;;;;;5054097;28;20613;-79
2022/02/12 05:14:35;;;;;;;0.50;0.40;;;0.30;99.90;;;;;;5053655;28;20220;-78
2022/02/12 05:17:03;;;;;;;0.50;0.50;;;0.20;99.90;;;;;;5053451;28;20544;-79
2022/02/12 05:19:30;;;;;;;0.70;0.68;;;0.20;99.90;;;;;;5053041;28;20614;-78
2022/02/12 05:21:56;;;;;;;0.50;0.40;;;0.20;99.90;;;;;;5053900;28;20663;-78
2022/02/12 05:24:23;;;;;;;0.85;0.85;;;0.20;99.90;;;;;;5053591;28;20223;-78
2022/02/12 05:26:50;;;;;;;0.50;0.40;;;0.20;99.90;;;;;;5053438;28;20591;-78
2022/02/12 05:29:17;;;;;;;0.73;0.73;;;0.20;99.90;;;;;;5052999;28;20217;-78
2022/02/12 05:31:45;;;;;;;0.50;0.50;;;0.20;99.90;;;;;;5053556;28;20247;-79
2022/02/12 05:34:11;;;;;;;1.48;1.48;;;0.20;99.90;;;;;;5056589;28;20575;-78
2022/02/12 05:36:38;;;;;;;0.50;0.40;;;0.20;99.90;;;;;;5057221;28;20205;-80
2022/02/12 05:39:05;;;;;;;0.50;0.50;;;0.20;99.90;;;;;;5055517;28;20193;-80
2022/02/12 05:41:32;;;;;;;0.82;0.82;;;0.20;99.90;;;;;;5056006;28;20194;-81
2022/02/12 05:43:59;;;;;;;0.50;0.40;;;0.10;99.90;;;;;;5056723;28;20200;-81
2022/02/12 05:46:25;;;;;;;0.50;0.40;;;0.10;99.90;;;;;;5057068;28;20200;-80
2022/02/12 05:48:53;;;;;;;5.07;1.92;;;0.10;99.90;;;;;;5057249;28;20263;-79
2022/02/12 05:51:22;;;;;;;1.48;1.40;;;0.10;99.90;;;;;;5056658;28;20203;-80
2022/02/12 05:53:49;;;;;;;1.15;1.05;;;0.00;99.90;;;;;;5057461;28;20669;-80
2022/02/12 05:56:16;;;;;;;0.95;0.95;;;0.10;99.90;;;;;;5056401;28;20221;-80
2022/02/12 05:58:43;;;;;;;0.50;0.50;;;0.20;99.90;;;;;;5056717;28;20194;-80
2022/02/12 06:01:10;;;;;;;0.65;0.65;;;0.20;99.90;;;;;;5057541;28;20200;-79
2022/02/12 06:03:37;;;;;;;0.50;0.40;;;0.10;99.90;;;;;;5057765;28;20202;-79
2022/02/12 06:06:05;;;;;;;0.50;0.50;;;0.20;99.90;;;;;;5056893;28;20633;-77
2022/02/12 06:08:32;;;;;;;0.55;0.52;;;0.20;99.90;;;;;;5055831;28;20240;-80
2022/02/12 06:11:01;;;;;;;0.50;0.40;;;0.20;99.90;;;;;;5056009;28;20235;-80
2022/02/12 06:13:29;;;;;;;0.50;0.40;;;0.20;99.90;;;;;;5056558;28;20201;-80
2022/02/12 06:15:55;;;;;;;0.50;0.47;;;0.20;99.90;;;;;;5056205;28;20235;-80
2022/02/12 06:18:22;;;;;;;0.60;0.60;;;0.20;99.90;;;;;;5056304;28;20595;-80
2022/02/12 06:20:49;;;;;;;0.50;0.40;;;0.20;99.90;;;;;;5056739;28;20202;-80
2022/02/12 06:23:19;;;;;;;1.35;1.25;;;0.20;99.90;;;;;;5056400;28;20202;-80
2022/02/12 06:25:46;;;;;;;0.50;0.50;;;0.20;99.90;;;;;;5057250;28;20228;-80
2022/02/12 06:28:13;;;;;;;1.42;1.20;;;0.20;99.90;;;;;;5056537;28;20230;-80
2022/02/12 06:30:39;;;;;;;1.63;1.52;;;0.10;99.90;;;;;;5056315;28;20699;-80
2022/02/12 06:33:06;;;;;;;0.50;0.50;;;0.20;99.90;;;;;;5056600;28;20205;-78
2022/02/12 06:35:33;;;;;;;0.85;0.85;;;0.20;99.90;;;;;;5055780;28;20737;-79
2022/02/12 06:38:00;;;;;;;0.68;0.68;;;0.20;99.90;;;;;;5056067;28;20229;-80
2022/02/12 06:40:28;;;;;;;0.50;0.50;;;0.20;99.90;;;;;;5057691;28;20204;-79
2022/02/12 06:42:54;;;;;;;0.50;0.50;;;0.20;99.90;;;;;;5056224;28;20197;-78
2022/02/12 06:45:21;;;;;;;0.50;0.40;;;0.20;99.90;;;;;;5057038;28;20265;-79
2022/02/12 06:47:48;;;;;;;0.50;0.40;;;0.20;99.90;;;;;;5056384;28;20201;-80
2022/02/12 06:50:14;;;;;;;0.68;0.68;;;0.20;99.90;;;;;;5055909;28;20268;-80
2022/02/12 06:52:42;;;;;;;0.60;0.60;;;0.30;99.90;;;;;;5056389;28;20300;-80
2022/02/12 06:55:11;;;;;;;0.50;0.50;;;0.30;99.90;;;;;;5057336;28;20217;-78
2022/02/12 06:57:39;;;;;;;0.50;0.40;;;0.30;99.90;;;;;;5055392;28;20230;-79
2022/02/12 07:00:07;;;;;;;0.60;0.60;;;0.30;99.90;;;;;;5053281;28;20193;-79
2022/02/12 07:02:34;;;;;;;0.50;0.40;;;0.30;99.90;;;;;;5053317;28;20280;-79
2022/02/12 07:05:01;;;;;;;0.50;0.40;;;0.30;99.90;;;;;;5052865;28;20649;-78
2022/02/12 07:07:28;;;;;;;0.50;0.40;;;0.40;99.90;;;;;;5053453;28;20255;-78
2022/02/12 07:09:54;;;;;;;0.50;0.50;;;0.40;99.90;;;;;;5052568;28;20221;-79
2022/02/12 07:12:21;;;;;;;0.50;0.40;;;0.50;99.90;;;;;;5052991;28;20244;-78
2022/02/12 07:14:49;;;;;;;1.42;1.17;;;0.50;99.90;;;;;;5053330;28;20224;-78
2022/02/12 07:17:16;;;;;;;0.50;0.40;;;0.60;99.90;;;;;;5052910;28;20228;-79
2022/02/12 07:19:43;;;;;;;0.50;0.47;;;0.70;99.90;;;;;;5056005;28;20188;-79
2022/02/12 07:22:09;;;;;;;0.50;0.40;;;0.80;99.90;;;;;;5057987;28;20503;-78
2022/02/12 07:24:36;;;;;;;0.50;0.40;;;0.80;99.90;;;;;;5057055;28;20778;-79
2022/02/12 07:27:03;;;;;;;0.50;0.40;;;1.00;99.90;;;;;;5057610;28;20602;-78
2022/02/12 07:29:30;;;;;;;0.50;0.40;;;1.10;99.90;;;;;;5056745;28;20245;-78
2022/02/12 07:31:58;;;;;;;0.50;0.40;;;1.20;99.90;;;;;;5056800;28;20209;-79
2022/02/12 07:34:25;;;;;;;0.63;0.60;;;1.20;99.90;;;;;;5056818;28;20225;-79
2022/02/12 07:36:51;;;;;;;1.17;1.08;;;1.30;99.90;;;;;;5057130;28;20225;-77
2022/02/12 07:39:18;;;;;;;2.25;1.02;;;1.40;99.90;;;;;;5056534;28;20198;-78
2022/02/12 07:41:45;;;;;;;0.60;0.50;;;1.60;99.90;;;;;;5056914;28;20255;-77
2022/02/12 07:44:11;;;;;;;0.90;0.82;;;1.90;99.90;;;;;;5056777;28;20197;-79
2022/02/12 07:46:38;;;;;;;0.52;0.45;;;2.20;99.90;;;;;;5057105;28;20287;-79
2022/02/12 07:49:06;;;;;;;0.50;0.50;;;2.60;99.90;;;;;;5056468;28;20218;-78
2022/02/12 07:51:33;;;;;;;0.70;0.70;;;3.00;99.90;;;;;;5057438;28;20201;-78
2022/02/12 07:53:59;;;;;;;1.35;0.77;;;3.30;99.90;;;;;;5056399;28;20721;-78
2022/02/12 07:56:27;;;;;;;1.45;1.35;;;3.60;99.90;;;;;;5056976;28;20675;-79
2022/02/12 07:58:54;;;;;;;0.50;0.40;;;3.90;99.90;;;;;;5058061;28;20209;-77
2022/02/12 08:01:21;;;;;;;0.50;0.40;;;4.50;99.90;;;;;;5055144;28;20244;-76
2022/02/12 08:03:47;;;;;;;0.50;0.40;;;4.90;99.90;;;;;;5055683;28;20194;-77
2022/02/12 08:08:59;;;;;;;0.50;0.40;;;4.70;99.90;;;;;;5055071;28;20225;-79
2022/02/12 08:11:32;;;;;;;0.60;0.60;;;4.60;99.90;;;;;;5055115;28;20199;-79
2022/02/12 08:13:59;;;;;;;0.50;0.40;;;4.70;99.90;;;;;;5055066;28;20720;-77
2022/02/12 08:16:26;;;;;;;0.50;0.50;;;4.80;99.90;;;;;;5053947;28;20215;-77
2022/02/12 08:18:52;;;;;;;0.50;0.40;;;5.10;99.90;;;;;;5054220;28;20195;-76
2022/02/12 08:21:21;;;;;;;0.50;0.40;;;5.40;99.90;;;;;;5053846;28;20191;-77
2022/02/12 08:23:47;;;;;;;0.82;0.80;;;5.70;99.90;;;;;;5054470;28;20195;-78
2022/02/12 08:26:15;;;;;;;0.50;0.40;;;6.20;99.90;;;;;;5054133;28;20272;-78
2022/02/12 08:28:41;;;;;;;0.50;0.40;;;6.50;99.90;;;;;;5053846;28;20232;-77
2022/02/12 08:31:08;;;;;;;0.50;0.50;;;7.20;99.90;;;;;;5052702;28;20252;-78
2022/02/12 08:33:35;;;;;;;0.60;0.50;;;7.50;99.90;;;;;;5054370;28;20196;-77
2022/02/12 08:36:02;;;;;;;0.50;0.40;;;6.70;99.90;;;;;;5053364;28;20642;-77
2022/02/12 08:38:30;;;;;;;0.50;0.50;;;6.80;99.90;;;;;;5054187;28;20199;-78
2022/02/12 08:40:56;;;;;;;0.50;0.40;;;6.90;99.90;;;;;;5053999;28;20669;-77
2022/02/12 08:43:23;;;;;;;0.50;0.40;;;6.90;99.90;;;;;;5054106;28;20197;-78
2022/02/12 08:45:50;;;;;;;0.50;0.40;;;7.40;99.90;;;;;;5053242;28;20222;-78
2022/02/12 08:48:16;;;;;;;0.50;0.40;;;7.50;99.90;;;;;;5053599;28;20201;-78
2022/02/12 08:50:43;;;;;;;0.50;0.40;;;7.70;99.90;;;;;;5053543;28;20567;-77
2022/02/12 08:53:10;;;;;;;0.50;0.40;;;8.00;99.90;;;;;;5053573;28;20208;-78
2022/02/12 08:55:38;;;;;;;0.50;0.40;;;7.90;99.90;;;;;;5053770;28;20579;-77
2022/02/12 08:58:05;;;;;;;0.50;0.40;;;8.20;99.80;;;;;;5053304;28;20192;-78
2022/02/12 09:00:32;;;;;;;0.50;0.40;;;8.60;99.90;;;;;;5053524;28;20544;-78
2022/02/12 09:02:59;;;;;;;0.50;0.40;;;9.10;95.10;;;;;;5053250;28;20201;-78
2022/02/12 09:05:25;;;;;;;0.50;0.40;;;9.50;91.90;;;;;;5053331;28;20292;-78
2022/02/12 09:07:52;;;;;;;0.50;0.40;;;10.00;90.90;;;;;;5053622;28;20252;-78
2022/02/12 09:10:19;;;;;;;0.50;0.40;;;10.20;88.60;;;;;;5054534;28;20264;-78
2022/02/12 09:12:47;;;;;;;0.50;0.40;;;11.10;83.90;;;;;;5052863;28;20692;-78
2022/02/12 09:15:14;;;;;;;1.13;1.02;;;11.30;78.30;;;;;;5052269;28;20268;-77
2022/02/12 09:17:41;;;;;;;3.17;2.97;;;11.70;75.50;;;;;;5053562;28;20268;-78
2022/02/12 09:20:08;;;;;;;0.50;0.40;;;11.10;73.80;;;;;;5052989;28;20248;-79
2022/02/12 09:22:35;;;;;;;0.50;0.50;;;11.00;72.90;;;;;;5053104;28;20197;-78
2022/02/12 09:25:02;;;;;;;0.50;0.43;;;10.20;74.40;;;;;;5052831;28;20778;-77
2022/02/12 09:27:29;;;;;;;0.50;0.40;;;9.70;77.70;;;;;;5052863;28;20251;-77
2022/02/12 09:29:59;;;;;;;0.50;0.40;;;9.30;80.20;;;;;;5052321;28;20209;-77
2022/02/12 09:32:26;;;;;;;0.50;0.40;;;8.80;82.30;;;;;;5053251;28;20619;-77
2022/02/12 09:34:53;;;;;;;0.80;0.80;;;8.60;84.10;;;;;;5052467;28;20222;-78
2022/02/12 09:37:20;;;;;;;1.67;1.58;;;8.50;85.90;;;;;;5052538;28;20293;-76
2022/02/12 09:39:47;;;;;;;0.50;0.40;;;8.20;89.40;;;;;;5052602;28;20200;-77
2022/02/12 09:42:14;;;;;;;0.50;0.40;;;7.70;92.90;;;;;;5051698;28;20203;-74
2022/02/12 09:44:41;;;;;;;5.97;0.85;;;7.20;99.90;;;;;;5052503;28;20790;-77
2022/02/12 09:47:54;;;;;;;0.50;0.40;;;6.60;99.90;;;;;;5052193;28;20202;-75
2022/02/12 09:50:23;;;;;;;0.90;0.90;;;6.30;99.90;;;;;;5051984;28;20210;-76
2022/02/12 09:52:52;;;;;;;0.60;0.50;;;6.00;99.90;;;;;;5052888;28;20245;-78
2022/02/12 09:55:20;;;;;;;0.95;0.80;;;6.00;99.90;;;;;;5052189;28;20703;-77
2022/02/12 09:57:47;;;;;;;1.15;1.15;;;5.70;99.90;;;;;;5052788;28;20571;-78
2022/02/12 10:00:17;;;;;;;1.40;1.30;;;5.50;99.90;;;;;;5052161;28;20849;-77
2022/02/12 10:02:46;;;;;;;0.50;0.40;;;5.50;99.90;;;;;;5052152;28;20273;-77
2022/02/12 10:05:25;;;;;;;0.50;0.40;;;5.70;99.90;;;;;;5052068;28;20227;-78
2022/02/12 10:08:07;;;;;;;0.55;0.50;;;5.90;99.90;;;;;;5052862;28;20230;-76
2022/02/12 10:10:36;;;;;;;0.50;0.40;;;6.20;99.90;;;;;;5051852;28;20244;-78
2022/02/12 10:13:12;;;;;;;0.57;0.55;;;6.10;99.90;;;;;;5052089;28;20197;-77
2022/02/12 10:15:40;;;;;;;0.50;0.40;;;6.00;99.90;;;;;;5051823;28;20223;-77
2022/02/12 10:18:09;;;;;;;4.00;1.00;;;6.10;99.90;;;;;;5052371;28;20245;-78
2022/02/12 10:20:37;;;;;;;0.50;0.40;;;6.20;99.90;;;;;;5051796;28;20248;-77
2022/02/12 10:23:07;;;;;;;0.88;0.68;;;6.00;99.90;;;;;;5053296;28;20290;-78
2022/02/12 10:25:35;;;;;;;0.60;0.60;;;6.00;99.90;;;;;;5052505;28;20689;-78
2022/02/12 10:28:03;;;;;;;1.23;0.60;;;6.10;99.90;;;;;;5052686;28;20205;-79
2022/02/12 10:30:31;;;;;;;2.03;1.80;;;5.90;99.90;;;;;;5052189;28;20244;-77
2022/02/12 10:32:59;;;;;;;0.50;0.50;;;6.00;99.90;;;;;;5052582;28;20199;-78
2022/02/12 10:35:28;;;;;;;0.50;0.40;;;6.10;99.90;;;;;;5051722;28;20216;-78
2022/02/12 10:37:59;;;;;;;0.50;0.40;;;6.20;99.90;;;;;;5052421;28;20195;-78
2022/02/12 10:40:26;;;;;;;1.95;1.40;;;6.30;99.90;;;;;;5052450;28;20175;-77
2022/02/12 10:42:53;;;;;;;1.10;1.00;;;6.70;99.90;;;;;;5052493;28;20198;-78
2022/02/12 10:45:20;;;;;;;0.80;0.68;;;7.10;99.90;;;;;;5051680;28;20223;-78
2022/02/12 10:47:48;;;;;;;3.80;1.05;;;7.10;99.90;;;;;;5052530;28;20193;-78
2022/02/12 10:50:17;;;;;;;2.55;1.08;;;7.10;99.90;;;;;;5052868;28;20211;-78
2022/02/12 10:52:46;;;;;;;1.40;1.40;;;7.40;99.90;;;;;;5052127;28;20198;-77
2022/02/12 10:55:29;;;;;;;6.38;2.67;;;8.00;99.80;;;;;;5052380;28;20211;-78
2022/02/12 10:57:57;;;;;;;2.75;1.55;;;8.20;96.10;;;;;;5052089;28;20572;-78
2022/02/12 11:00:26;;;;;;;0.95;0.88;;;7.50;95.70;;;;;;5051211;28;20280;-77
2022/02/12 11:02:54;;;;;;;0.50;0.43;;;7.20;98.80;;;;;;5051593;28;20297;-78
2022/02/12 11:05:22;;;;;;;9.30;1.38;;;7.60;99.90;;;;;;5051546;28;20709;-77
2022/02/12 11:08:16;;;;;;;0.63;0.57;;;8.30;94.00;;;;;;5051350;28;20564;-79
2022/02/12 11:10:43;;;;;;;0.50;0.50;;;8.50;91.00;;;;;;5052373;28;20198;-77
2022/02/12 11:13:10;;;;;;;2.45;0.50;;;9.00;91.80;;;;;;5051046;28;20201;-78
2022/02/12 11:15:37;;;;;;;5.63;1.00;;;9.80;84.70;;;;;;5051498;28;20217;-79
2022/02/12 11:18:08;;;;;;;16.00;1.73;;;9.80;80.90;;;;;;5052267;28;20555;-78
2022/02/12 11:20:36;;;;;;;0.50;0.40;;;10.30;79.00;;;;;;5052165;28;20287;-79
2022/02/12 11:23:26;;;;;;;0.63;0.63;;;11.00;75.30;;;;;;5052532;28;20222;-78
2022/02/12 11:25:54;;;;;;;0.63;0.53;;;11.40;72.10;;;;;;5052257;28;20223;-77
2022/02/12 11:28:28;;;;;;;1.60;0.95;;;10.70;71.40;;;;;;5052424;28;20528;-79
2022/02/12 11:31:16;;;;;;;1.52;1.42;;;10.00;72.20;;;;;;5052598;28;20310;-78
2022/02/12 11:34:05;;;;;;;0.50;0.40;;;9.80;75.70;;;;;;5052402;28;20194;-77
2022/02/12 11:36:32;;;;;;;1.08;0.90;;;9.90;75.40;;;;;;5057905;28;20200;-78
2022/02/12 11:39:08;;;;;;;1.17;1.02;;;9.80;73.50;;;;;;5059114;28;20194;-76
2022/02/12 11:41:36;;;;;;;0.73;0.73;;;9.40;74.80;;;;;;5059452;28;20195;-78
2022/02/12 11:44:06;;;;;;;0.50;0.40;;;9.10;73.60;;;;;;5062349;28;20317;-76
2022/02/12 11:47:05;;;;;;;1.08;0.98;;;8.70;74.90;;;;;;5064946;28;20236;-78
2022/02/12 11:49:33;;;;;;;2.78;1.30;;;8.10;75.60;;;;;;5061726;28;20201;-78
2022/02/12 11:52:02;;;;;;;0.50;0.50;;;7.50;77.80;;;;;;5062134;28;20212;-77
2022/02/12 11:54:56;;;;;;;0.73;0.73;;;7.50;78.90;;;;;;5051740;28;20311;-77
2022/02/12 11:57:44;;;;;;;0.85;0.60;;;7.90;79.70;;;;;;5052216;28;20236;-77
2022/02/12 12:00:39;;;;;;;0.55;0.50;;;8.80;78.80;;;;;;5052513;28;20643;-78
2022/02/12 12:03:10;;;;;;;0.50;0.50;;;9.20;75.60;;;;;;5051730;28;20663;-78
2022/02/12 12:05:37;;;;;;;0.60;0.57;;;9.10;71.40;;;;;;5053069;28;20634;-78
2022/02/12 12:08:10;;;;;;;2.15;1.95;;;8.70;72.00;;;;;;5054788;28;20197;-78
2022/02/12 12:10:57;;;;;;;3.20;1.98;;;8.80;72.60;;;;;;5054864;28;20211;-78
2022/02/12 12:13:44;;;;;;;0.50;0.40;;;9.30;73.80;;;;;;5054845;28;20201;-78
2022/02/12 12:16:33;;;;;;;0.50;0.40;;;9.40;70.20;;;;;;5054439;28;20254;-78
2022/02/12 12:19:02;;;;;;;0.50;0.50;;;9.40;69.80;;;;;;5054339;28;20194;-78
2022/02/12 12:21:31;;;;;;;1.13;1.02;;;9.30;70.20;;;;;;5054460;28;20222;-76
2022/02/12 12:24:00;;;;;;;0.50;0.40;;;8.90;70.60;;;;;;5054558;28;20754;-78
2022/02/12 12:26:41;;;;;;;0.60;0.60;;;8.90;70.70;;;;;;5055309;28;20218;-78
2022/02/12 12:31:59;;;;;;;0.50;0.40;;;8.70;71.30;;;;;;5067913;28;20268;-79
2022/02/12 12:34:26;;;;;;;0.80;0.80;;;8.50;71.80;;;;;;5064670;28;20217;-79
2022/02/12 12:36:56;;;;;;;0.68;0.68;;;8.50;72.10;;;;;;5064492;28;20197;-78
2022/02/12 12:39:31;;;;;;;0.60;0.50;;;8.10;71.60;;;;;;5063760;28;20179;-79
2022/02/12 12:41:59;;;;;;;0.60;0.50;;;8.10;72.20;;;;;;5063920;28;20829;-79
2022/02/12 12:44:27;;;;;;;1.02;0.75;;;8.00;73.30;;;;;;5059160;28;20223;-76
2022/02/12 12:46:55;;;;;;;0.60;0.60;;;8.00;74.00;;;;;;5062854;28;20192;-79
2022/02/12 12:49:29;;;;;;;1.55;0.98;;;8.00;73.10;;;;;;5061174;28;20202;-76
2022/02/12 12:51:56;;;;;;;0.70;0.65;;;8.00;74.40;;;;;;5054996;28;20696;-79
2022/02/12 12:54:30;;;;;;;0.98;0.57;;;7.70;74.20;;;;;;5054578;28;20347;-77
2022/02/12 12:56:59;;;;;;;0.50;0.40;;;7.70;75.20;;;;;;5054873;28;20304;-77
2022/02/12 12:59:26;;;;;;;0.50;0.40;;;7.80;77.20;;;;;;5053194;28;20696;-77
2022/02/12 13:02:01;;;;;;;0.60;0.50;;;8.10;77.50;;;;;;5054162;28;20198;-78
2022/02/12 13:04:28;;;;;;;0.50;0.50;;;8.20;76.20;;;;;;5053764;28;20224;-77
2022/02/12 13:06:56;;;;;;;1.83;0.88;;;8.20;75.10;;;;;;5055386;28;20244;-79
2022/02/12 13:09:23;;;;;;;0.50;0.43;;;8.40;75.90;;;;;;5054340;28;20209;-77
2022/02/12 13:11:51;;;;;;;0.75;0.73;;;8.60;74.50;;;;;;5053499;28;20701;-77
2022/02/12 13:14:19;;;;;;;0.77;0.68;;;8.60;75.00;;;;;;5054091;28;20198;-77
2022/02/12 13:16:48;;;;;;;1.35;0.75;;;8.70;74.80;;;;;;5053323;28;20201;-77